Terminal Aerodrome Forecast
Issued by NWS

Home | Current Version | Previous Version | Text Only | Print | Product List | Glossary On
Versions: 1 2 3 4 5 6 7 8 9 10 11 12 13 14 15 16 17 18 19 20 21
000
FTUS42 KGSP 261120
TAFGMU
TAF
KGMU 261120Z 2612/2712 24005KT P6SM FEW100
     FM261400 27007KT P6SM SCT060 BKN100
     FM261800 31010G17KT P6SM BKN060
     FM262200 31010G17KT P6SM SCT250
     FM270700 30006KT P6SM SCT250=

USA.gov is the U.S. government's official web portal to all federal, state and local government web resources and services.